Time;durP1;ratioP1;P1;durP2;ratioP2;P2;SDS_P1;SDS_P2;PMS_P1;PMS_P2;Temp;Humidity;BMP_temperature;BMP_pressure;BME280_temperature;BME280_humidity;BME280_pressure;Samples;Min_cycle;Max_cycle;Signal;HPM_P1;HPM_P2
2024/01/19 00:02:19;;;;;;;0.63;0.63;;;;;;;;;;4936320;29;20083;-60
2024/01/19 00:04:45;;;;;;;0.40;0.30;;;;;;;;;;4935347;29;20047;-60
2024/01/19 00:07:10;;;;;;;0.47;0.47;;;;;;;;;;4935105;29;20036;-60
2024/01/19 00:09:35;;;;;;;0.65;0.65;;;;;;;;;;4936986;29;20027;-61
2024/01/19 00:12:01;;;;;;;1.15;0.47;;;;;;;;;;4934790;29;20040;-60
2024/01/19 00:14:28;;;;;;;1.63;0.40;;;;;;;;;;4930920;29;20042;-60
2024/01/19 00:16:53;;;;;;;0.73;0.73;;;;;;;;;;4931465;29;20104;-60
2024/01/19 00:19:19;;;;;;;0.43;0.35;;;;;;;;;;4938417;29;20494;-60
2024/01/19 00:21:45;;;;;;;1.13;0.68;;;;;;;;;;4936844;29;20110;-60
2024/01/19 00:24:12;;;;;;;1.00;0.38;;;;;;;;;;4936604;29;20038;-60
2024/01/19 00:26:37;;;;;;;0.63;0.60;;;;;;;;;;4935827;29;20034;-60
2024/01/19 00:29:03;;;;;;;1.15;0.70;;;;;;;;;;4936804;29;20099;-60
2024/01/19 00:31:29;;;;;;;1.50;0.28;;;;;;;;;;4937105;29;20050;-60
2024/01/19 00:33:54;;;;;;;1.60;1.27;;;;;;;;;;4935450;29;20035;-59
2024/01/19 00:36:19;;;;;;;1.13;0.77;;;;;;;;;;4938191;29;20028;-60
2024/01/19 00:38:45;;;;;;;0.60;0.20;;;;;;;;;;4936851;29;20032;-60
2024/01/19 00:41:10;;;;;;;0.65;0.40;;;;;;;;;;4936515;29;20062;-60
2024/01/19 00:43:36;;;;;;;2.00;1.13;;;;;;;;;;4934430;29;20442;-59
2024/01/19 00:46:03;;;;;;;1.05;0.85;;;;;;;;;;4936174;29;20497;-59
2024/01/19 00:48:29;;;;;;;1.38;1.08;;;;;;;;;;4937224;29;20040;-60
2024/01/19 00:50:54;;;;;;;1.58;0.60;;;;;;;;;;4936679;29;20079;-56
2024/01/19 00:53:19;;;;;;;0.77;0.55;;;;;;;;;;4936291;29;20043;-59
2024/01/19 00:55:45;;;;;;;0.93;0.70;;;;;;;;;;4935720;29;20492;-61
2024/01/19 00:58:10;;;;;;;0.50;0.25;;;;;;;;;;4931420;29;20568;-59
2024/01/19 01:00:36;;;;;;;0.68;0.47;;;;;;;;;;4934856;29;20027;-58
2024/01/19 01:03:01;;;;;;;1.23;1.15;;;;;;;;;;4937255;29;20114;-61
2024/01/19 01:05:27;;;;;;;0.75;0.52;;;;;;;;;;4932687;29;20027;-60
2024/01/19 01:07:52;;;;;;;0.45;0.45;;;;;;;;;;4929936;29;20042;-60
2024/01/19 01:10:18;;;;;;;1.13;0.82;;;;;;;;;;4934319;29;20040;-59
2024/01/19 01:12:43;;;;;;;1.48;1.38;;;;;;;;;;4931069;29;20082;-59
2024/01/19 01:15:09;;;;;;;1.10;0.30;;;;;;;;;;4936802;29;20055;-60
2024/01/19 01:17:34;;;;;;;0.90;0.90;;;;;;;;;;4933007;29;20036;-57
2024/01/19 01:19:59;;;;;;;0.98;0.75;;;;;;;;;;4936969;29;20027;-60
2024/01/19 01:22:26;;;;;;;1.30;1.20;;;;;;;;;;4936686;29;20406;-60
2024/01/19 01:24:52;;;;;;;1.25;1.15;;;;;;;;;;4932182;29;20027;-59
2024/01/19 01:27:17;;;;;;;1.27;1.15;;;;;;;;;;4933843;29;20047;-59
2024/01/19 01:29:42;;;;;;;1.25;1.20;;;;;;;;;;4935941;29;20024;-56
2024/01/19 01:32:08;;;;;;;1.48;1.38;;;;;;;;;;4932801;29;20107;-60
2024/01/19 01:34:33;;;;;;;0.63;0.55;;;;;;;;;;4934826;29;20623;-58
2024/01/19 01:36:59;;;;;;;1.63;1.25;;;;;;;;;;4936020;29;20122;-61
2024/01/19 01:39:25;;;;;;;0.73;0.73;;;;;;;;;;4932688;29;20040;-60
2024/01/19 01:41:51;;;;;;;1.48;1.10;;;;;;;;;;4932662;29;20043;-57
2024/01/19 01:44:16;;;;;;;0.65;0.32;;;;;;;;;;4937402;29;20114;-60
2024/01/19 01:46:42;;;;;;;1.55;1.02;;;;;;;;;;4936412;29;20042;-59
2024/01/19 01:49:09;;;;;;;1.13;0.63;;;;;;;;;;4933627;29;20128;-57
2024/01/19 01:51:34;;;;;;;1.27;1.17;;;;;;;;;;4934835;29;20042;-58
2024/01/19 01:54:01;;;;;;;1.73;1.17;;;;;;;;;;4935900;29;20103;-60
2024/01/19 01:56:27;;;;;;;1.05;1.00;;;;;;;;;;4934423;29;20035;-55
2024/01/19 01:58:53;;;;;;;1.55;1.45;;;;;;;;;;4935123;29;20038;-57
2024/01/19 02:01:19;;;;;;;2.00;1.90;;;;;;;;;;4928618;29;20467;-60
2024/01/19 02:03:46;;;;;;;1.52;1.40;;;;;;;;;;4928444;29;20044;-60
2024/01/19 02:06:11;;;;;;;1.23;1.13;;;;;;;;;;4928069;29;20095;-58
2024/01/19 02:08:40;;;;;;;1.25;0.77;;;;;;;;;;4926278;29;20064;-59
2024/01/19 02:11:06;;;;;;;1.80;1.70;;;;;;;;;;4932887;29;20111;-59
2024/01/19 02:13:31;;;;;;;2.00;1.90;;;;;;;;;;4937680;29;20067;-60
2024/01/19 02:16:00;;;;;;;1.70;1.52;;;;;;;;;;4940932;29;20102;-59
2024/01/19 02:18:26;;;;;;;1.00;0.88;;;;;;;;;;4935341;29;20118;-58
2024/01/19 02:20:52;;;;;;;1.48;1.15;;;;;;;;;;4936321;29;20027;-58
2024/01/19 02:23:19;;;;;;;1.58;1.42;;;;;;;;;;4937584;29;20043;-60
2024/01/19 02:25:45;;;;;;;1.33;1.17;;;;;;;;;;4940476;29;20437;-60
2024/01/19 02:28:10;;;;;;;2.35;1.40;;;;;;;;;;4938748;29;20040;-59
2024/01/19 02:30:36;;;;;;;1.65;1.55;;;;;;;;;;4938597;29;20120;-58
2024/01/19 02:33:03;;;;;;;2.13;1.60;;;;;;;;;;4939446;29;20491;-61
2024/01/19 02:35:28;;;;;;;2.05;1.38;;;;;;;;;;4940978;29;20031;-59
2024/01/19 02:37:53;;;;;;;2.50;2.30;;;;;;;;;;4938392;29;20095;-59
2024/01/19 02:40:19;;;;;;;1.05;0.95;;;;;;;;;;4935732;29;20565;-61
2024/01/19 02:42:44;;;;;;;1.65;1.27;;;;;;;;;;4937826;29;20543;-60
2024/01/19 02:45:10;;;;;;;2.30;1.75;;;;;;;;;;4939366;29;20031;-58
2024/01/19 02:47:35;;;;;;;3.47;2.50;;;;;;;;;;4937889;29;20130;-58
2024/01/19 02:50:01;;;;;;;2.42;2.10;;;;;;;;;;4939912;29;20094;-57
2024/01/19 02:52:26;;;;;;;3.15;2.85;;;;;;;;;;4937334;29;20043;-60
2024/01/19 02:54:51;;;;;;;2.40;1.95;;;;;;;;;;4937442;29;20020;-58
2024/01/19 02:57:17;;;;;;;3.00;2.67;;;;;;;;;;4933602;29;20127;-59
2024/01/19 02:59:42;;;;;;;2.88;2.20;;;;;;;;;;4937548;29;20117;-59
2024/01/19 03:02:08;;;;;;;1.60;1.50;;;;;;;;;;4938568;29;20114;-60
2024/01/19 03:04:33;;;;;;;3.03;2.10;;;;;;;;;;4938899;29;20019;-60
2024/01/19 03:06:58;;;;;;;3.80;3.60;;;;;;;;;;4930811;29;20047;-60
2024/01/19 03:09:24;;;;;;;3.15;2.35;;;;;;;;;;4938916;29;20032;-58
2024/01/19 03:11:49;;;;;;;2.42;2.20;;;;;;;;;;4938827;29;20036;-59
2024/01/19 03:14:14;;;;;;;3.05;2.05;;;;;;;;;;4938295;29;20434;-58
2024/01/19 03:16:41;;;;;;;2.70;2.38;;;;;;;;;;4935956;29;20062;-57
2024/01/19 03:19:06;;;;;;;2.95;2.60;;;;;;;;;;4938972;29;20390;-58
2024/01/19 03:21:32;;;;;;;2.90;2.20;;;;;;;;;;4937077;29;20094;-60
2024/01/19 03:23:57;;;;;;;3.78;2.47;;;;;;;;;;4938640;29;20128;-60
2024/01/19 03:26:22;;;;;;;4.43;3.88;;;;;;;;;;4939125;29;20059;-58
2024/01/19 03:28:48;;;;;;;1.95;1.02;;;;;;;;;;4937788;29;20027;-60
2024/01/19 03:31:13;;;;;;;2.33;1.70;;;;;;;;;;4936470;29;20087;-60
2024/01/19 03:33:39;;;;;;;2.70;1.70;;;;;;;;;;4937643;29;20049;-58
2024/01/19 03:36:04;;;;;;;2.75;2.55;;;;;;;;;;4936604;29;20043;-59
2024/01/19 03:38:30;;;;;;;4.22;3.25;;;;;;;;;;4937901;29;20047;-59
2024/01/19 03:40:56;;;;;;;2.85;2.65;;;;;;;;;;4933798;29;20466;-60
2024/01/19 03:43:21;;;;;;;3.22;2.67;;;;;;;;;;4938390;29;20156;-60
2024/01/19 03:45:47;;;;;;;2.75;2.25;;;;;;;;;;4937240;29;20032;-58
2024/01/19 03:48:12;;;;;;;3.08;2.53;;;;;;;;;;4933204;29;20527;-58
2024/01/19 03:50:38;;;;;;;3.22;2.78;;;;;;;;;;4936722;29;20067;-60
2024/01/19 03:53:03;;;;;;;3.47;2.30;;;;;;;;;;4931861;29;20064;-58
2024/01/19 03:55:29;;;;;;;4.35;3.20;;;;;;;;;;4930490;29;20032;-59
2024/01/19 03:57:54;;;;;;;3.33;2.85;;;;;;;;;;4938111;29;20047;-59
2024/01/19 04:00:19;;;;;;;3.45;2.85;;;;;;;;;;4934356;29;20044;-58
2024/01/19 04:02:45;;;;;;;4.93;2.65;;;;;;;;;;4933030;29;20042;-59
2024/01/19 04:05:10;;;;;;;3.47;2.90;;;;;;;;;;4932913;29;20031;-60
2024/01/19 04:07:36;;;;;;;3.63;3.25;;;;;;;;;;4931026;29;20071;-58
2024/01/19 04:10:02;;;;;;;6.10;4.57;;;;;;;;;;4933299;29;20011;-58
2024/01/19 04:12:27;;;;;;;3.92;3.35;;;;;;;;;;4936271;29;20521;-59
2024/01/19 04:14:53;;;;;;;4.63;4.05;;;;;;;;;;4931712;29;20035;-54
2024/01/19 04:17:18;;;;;;;4.72;3.28;;;;;;;;;;4936609;29;20123;-59
2024/01/19 04:19:43;;;;;;;6.03;3.45;;;;;;;;;;4933547;29;20064;-59
2024/01/19 04:22:09;;;;;;;7.30;3.35;;;;;;;;;;4932995;29;20110;-60
2024/01/19 04:24:34;;;;;;;6.22;3.63;;;;;;;;;;4938437;29;20023;-59
2024/01/19 04:27:00;;;;;;;4.72;3.78;;;;;;;;;;4932850;29;20070;-58
2024/01/19 04:29:25;;;;;;;4.70;3.58;;;;;;;;;;4938282;29;20051;-60
2024/01/19 04:31:50;;;;;;;2.78;2.33;;;;;;;;;;4936741;29;20028;-60
2024/01/19 04:34:16;;;;;;;6.53;4.60;;;;;;;;;;4935237;29;20058;-60
2024/01/19 04:36:42;;;;;;;6.18;5.03;;;;;;;;;;4934610;29;20414;-60
2024/01/19 04:39:07;;;;;;;6.88;5.00;;;;;;;;;;4933553;29;20595;-59
2024/01/19 04:41:33;;;;;;;5.78;4.38;;;;;;;;;;4937024;29;20032;-59
2024/01/19 04:43:58;;;;;;;7.93;3.78;;;;;;;;;;4935732;29;20031;-58
2024/01/19 04:46:24;;;;;;;5.75;4.45;;;;;;;;;;4939297;28;20090;-60
2024/01/19 04:48:49;;;;;;;5.40;4.72;;;;;;;;;;4935059;29;20024;-60
2024/01/19 04:51:15;;;;;;;5.47;4.97;;;;;;;;;;4935741;29;20130;-60
2024/01/19 04:53:40;;;;;;;6.60;5.82;;;;;;;;;;4934490;29;20040;-60
2024/01/19 04:56:06;;;;;;;5.78;3.72;;;;;;;;;;4934752;29;20039;-57
2024/01/19 04:58:36;;;;;;;6.90;4.53;;;;;;;;;;4930581;29;20084;-59
2024/01/19 05:01:02;;;;;;;8.75;4.80;;;;;;;;;;4934589;29;20061;-60
2024/01/19 05:03:27;;;;;;;5.45;3.83;;;;;;;;;;4937319;29;20032;-60
2024/01/19 05:05:53;;;;;;;7.65;5.38;;;;;;;;;;4935223;29;20442;-57
2024/01/19 05:08:18;;;;;;;5.07;4.07;;;;;;;;;;4936172;29;20072;-59
2024/01/19 05:10:44;;;;;;;7.90;5.40;;;;;;;;;;4933031;29;20035;-60
2024/01/19 05:13:09;;;;;;;5.05;4.45;;;;;;;;;;4937531;29;20046;-59
2024/01/19 05:15:35;;;;;;;6.13;3.65;;;;;;;;;;4935170;29;20773;-60
2024/01/19 05:18:01;;;;;;;6.82;5.25;;;;;;;;;;4933163;29;20039;-60
2024/01/19 05:20:27;;;;;;;7.13;3.92;;;;;;;;;;4936320;29;20035;-59
2024/01/19 05:22:52;;;;;;;7.35;4.13;;;;;;;;;;4935092;29;20028;-57
2024/01/19 05:25:18;;;;;;;6.28;3.33;;;;;;;;;;4933699;29;20119;-58
2024/01/19 05:27:50;;;;;;;5.45;4.45;;;;;;;;;;4935697;29;20075;-60
2024/01/19 05:30:16;;;;;;;5.80;4.10;;;;;;;;;;4936113;29;20055;-57
2024/01/19 05:32:42;;;;;;;6.03;3.72;;;;;;;;;;4933670;29;20040;-59
2024/01/19 05:35:07;;;;;;;6.80;3.55;;;;;;;;;;4935767;29;20030;-57
2024/01/19 05:37:32;;;;;;;4.35;3.78;;;;;;;;;;4935651;29;20054;-60
2024/01/19 05:39:58;;;;;;;6.75;3.78;;;;;;;;;;4935778;29;20043;-59
2024/01/19 05:42:23;;;;;;;3.80;3.08;;;;;;;;;;4936021;29;20049;-58
2024/01/19 05:44:49;;;;;;;6.10;3.28;;;;;;;;;;4936438;29;20036;-57
2024/01/19 05:47:14;;;;;;;5.18;3.97;;;;;;;;;;4934802;29;20099;-60
2024/01/19 05:49:40;;;;;;;4.43;2.72;;;;;;;;;;4939460;29;20378;-59
2024/01/19 05:52:05;;;;;;;5.90;3.05;;;;;;;;;;4927990;29;20036;-59
2024/01/19 05:54:33;;;;;;;3.58;2.22;;;;;;;;;;4938388;29;20020;-59
2024/01/19 05:56:59;;;;;;;4.18;2.90;;;;;;;;;;4937833;29;20070;-57
2024/01/19 05:59:24;;;;;;;6.28;2.63;;;;;;;;;;4940312;29;20028;-58
2024/01/19 06:01:49;;;;;;;5.68;2.97;;;;;;;;;;4937991;29;20032;-56
2024/01/19 06:04:15;;;;;;;6.28;4.35;;;;;;;;;;4934330;29;20035;-56
2024/01/19 06:06:40;;;;;;;7.47;5.93;;;;;;;;;;4935828;29;20051;-56
2024/01/19 06:09:07;;;;;;;3.47;3.15;;;;;;;;;;4937549;29;20047;-59
2024/01/19 06:11:32;;;;;;;9.43;5.80;;;;;;;;;;4933630;29;20034;-57
2024/01/19 06:13:58;;;;;;;3.80;2.13;;;;;;;;;;4930303;29;20024;-60
2024/01/19 06:16:23;;;;;;;6.32;3.53;;;;;;;;;;4933037;29;20043;-60
2024/01/19 06:18:48;;;;;;;4.85;3.80;;;;;;;;;;4933947;29;20031;-59
2024/01/19 06:21:14;;;;;;;5.93;3.55;;;;;;;;;;4938119;29;20035;-59
2024/01/19 06:23:39;;;;;;;4.45;2.78;;;;;;;;;;4935556;29;20503;-59
2024/01/19 06:26:11;;;;;;;4.35;2.70;;;;;;;;;;4938510;29;20027;-59
2024/01/19 06:28:37;;;;;;;4.45;3.63;;;;;;;;;;4934267;29;20063;-60
2024/01/19 06:31:04;;;;;;;5.18;4.50;;;;;;;;;;4936683;29;20054;-58
2024/01/19 06:33:30;;;;;;;3.90;1.63;;;;;;;;;;4940503;29;20051;-58
2024/01/19 06:35:56;;;;;;;4.97;2.17;;;;;;;;;;4932270;28;20031;-57
2024/01/19 06:38:23;;;;;;;4.05;3.00;;;;;;;;;;4936094;28;20039;-60
2024/01/19 06:40:48;;;;;;;4.20;3.08;;;;;;;;;;4938488;29;20036;-60
2024/01/19 06:43:14;;;;;;;5.43;2.70;;;;;;;;;;4931987;29;20036;-61
2024/01/19 06:45:39;;;;;;;2.45;2.22;;;;;;;;;;4939066;29;20123;-59
2024/01/19 06:48:05;;;;;;;4.03;2.22;;;;;;;;;;4938600;29;20039;-59
2024/01/19 06:50:30;;;;;;;4.53;2.40;;;;;;;;;;4937606;29;20490;-60
2024/01/19 06:52:55;;;;;;;3.58;2.25;;;;;;;;;;4936581;29;20130;-59
2024/01/19 06:55:23;;;;;;;2.65;2.15;;;;;;;;;;4932836;29;20032;-60
2024/01/19 06:57:48;;;;;;;3.20;2.33;;;;;;;;;;4937898;29;20409;-56
2024/01/19 07:00:17;;;;;;;3.30;2.67;;;;;;;;;;4938475;29;20118;-58
2024/01/19 07:02:42;;;;;;;8.15;3.80;;;;;;;;;;4938061;29;20044;-59
2024/01/19 07:05:08;;;;;;;2.47;2.05;;;;;;;;;;4938715;29;20020;-61
2024/01/19 07:07:33;;;;;;;5.03;3.45;;;;;;;;;;4934127;29;20039;-59
2024/01/19 07:09:58;;;;;;;4.88;2.65;;;;;;;;;;4937402;29;20115;-59
2024/01/19 07:12:24;;;;;;;6.25;2.75;;;;;;;;;;4938293;29;20040;-58
2024/01/19 07:14:50;;;;;;;5.22;3.63;;;;;;;;;;4934368;29;20030;-58
2024/01/19 07:17:15;;;;;;;5.82;3.63;;;;;;;;;;4934647;29;20039;-57
2024/01/19 07:19:41;;;;;;;3.55;2.58;;;;;;;;;;4936728;29;20389;-57
2024/01/19 07:22:06;;;;;;;5.93;3.00;;;;;;;;;;4934003;28;20043;-56
2024/01/19 07:24:32;;;;;;;7.28;4.03;;;;;;;;;;4935594;29;20038;-55
2024/01/19 07:26:59;;;;;;;4.93;3.58;;;;;;;;;;4937468;29;20050;-57
2024/01/19 07:29:24;;;;;;;5.05;3.53;;;;;;;;;;4937898;29;20103;-59
2024/01/19 07:31:49;;;;;;;9.73;3.63;;;;;;;;;;4941221;29;20123;-60
2024/01/19 07:34:15;;;;;;;5.05;2.80;;;;;;;;;;4934628;29;20032;-58
2024/01/19 07:36:40;;;;;;;4.45;3.22;;;;;;;;;;4933560;29;20027;-58
2024/01/19 07:39:06;;;;;;;3.35;2.92;;;;;;;;;;4928809;29;20078;-59
2024/01/19 07:41:31;;;;;;;6.93;4.47;;;;;;;;;;4936058;29;20043;-59
2024/01/19 07:43:56;;;;;;;4.97;3.92;;;;;;;;;;4940334;29;20027;-58
2024/01/19 07:46:22;;;;;;;6.57;3.10;;;;;;;;;;4932546;29;20063;-57
2024/01/19 07:48:47;;;;;;;5.07;3.85;;;;;;;;;;4931075;29;20900;-60
2024/01/19 07:51:13;;;;;;;4.25;2.67;;;;;;;;;;4937351;29;20194;-57
2024/01/19 07:53:38;;;;;;;3.47;3.10;;;;;;;;;;4938431;29;20035;-59
2024/01/19 07:56:04;;;;;;;4.00;2.53;;;;;;;;;;4937025;29;20039;-60
2024/01/19 07:58:29;;;;;;;4.38;3.80;;;;;;;;;;4933680;29;20044;-60
2024/01/19 08:00:54;;;;;;;4.22;3.33;;;;;;;;;;4935072;29;20024;-61
2024/01/19 08:03:21;;;;;;;4.70;3.10;;;;;;;;;;4938571;29;20119;-60
2024/01/19 08:05:47;;;;;;;4.15;3.45;;;;;;;;;;4934080;29;20047;-61
2024/01/19 08:08:13;;;;;;;4.45;2.83;;;;;;;;;;4935144;29;20551;-61
2024/01/19 08:10:38;;;;;;;4.57;3.13;;;;;;;;;;4935885;29;20019;-61
2024/01/19 08:13:04;;;;;;;5.32;3.88;;;;;;;;;;4935628;29;20454;-63
2024/01/19 08:15:29;;;;;;;3.75;3.08;;;;;;;;;;4937121;29;20063;-61
2024/01/19 08:17:55;;;;;;;4.22;3.35;;;;;;;;;;4935152;29;20035;-60
2024/01/19 08:20:21;;;;;;;5.13;3.35;;;;;;;;;;4937980;29;20024;-57
2024/01/19 08:22:47;;;;;;;4.65;3.47;;;;;;;;;;4933125;29;20050;-58
2024/01/19 08:25:12;;;;;;;5.05;3.85;;;;;;;;;;4934526;29;20044;-59
2024/01/19 08:27:41;;;;;;;7.10;4.80;;;;;;;;;;4925524;29;20055;-58
2024/01/19 08:30:08;;;;;;;6.45;3.33;;;;;;;;;;4936350;29;20011;-58
2024/01/19 08:32:34;;;;;;;6.38;4.93;;;;;;;;;;4937314;29;20046;-58
2024/01/19 08:35:00;;;;;;;4.65;3.92;;;;;;;;;;4933583;29;20027;-60
2024/01/19 08:37:26;;;;;;;4.50;3.65;;;;;;;;;;4934676;29;20094;-61
2024/01/19 08:39:51;;;;;;;7.10;3.63;;;;;;;;;;4936780;29;20032;-58
2024/01/19 08:42:16;;;;;;;6.07;3.72;;;;;;;;;;4928025;29;20410;-61
2024/01/19 08:44:45;;;;;;;4.70;3.55;;;;;;;;;;4933139;29;20096;-60
2024/01/19 08:47:11;;;;;;;4.32;3.63;;;;;;;;;;4934251;29;20044;-61
2024/01/19 08:49:36;;;;;;;4.55;3.58;;;;;;;;;;4929342;29;20389;-60
2024/01/19 08:52:02;;;;;;;4.43;2.95;;;;;;;;;;4935604;29;20058;-60
2024/01/19 08:54:27;;;;;;;5.40;3.42;;;;;;;;;;4935464;29;20051;-58
2024/01/19 08:56:54;;;;;;;5.65;3.28;;;;;;;;;;4931404;29;20042;-60
2024/01/19 08:59:19;;;;;;;4.85;3.97;;;;;;;;;;4933133;29;20043;-60
2024/01/19 09:01:46;;;;;;;5.53;3.78;;;;;;;;;;4934686;29;20447;-58
2024/01/19 09:04:11;;;;;;;4.53;3.28;;;;;;;;;;4933525;29;20023;-57
2024/01/19 09:06:37;;;;;;;5.13;3.38;;;;;;;;;;4930879;29;20035;-56
2024/01/19 09:09:03;;;;;;;7.70;4.70;;;;;;;;;;4936864;29;20070;-58
2024/01/19 09:11:31;;;;;;;5.25;4.32;;;;;;;;;;4933183;29;20122;-60
2024/01/19 09:13:57;;;;;;;5.57;5.05;;;;;;;;;;4935653;29;20039;-60
2024/01/19 09:16:22;;;;;;;6.30;4.20;;;;;;;;;;4937149;29;20060;-57
2024/01/19 09:18:47;;;;;;;5.65;3.60;;;;;;;;;;4935542;29;20059;-59
2024/01/19 09:21:19;;;;;;;5.53;3.00;;;;;;;;;;4933806;29;20036;-58
2024/01/19 09:23:45;;;;;;;5.00;3.38;;;;;;;;;;4932638;29;20118;-60
2024/01/19 09:26:20;;;;;;;6.57;4.50;;;;;;;;;;4931749;29;20054;-59
2024/01/19 09:28:46;;;;;;;5.25;2.88;;;;;;;;;;4936221;29;20499;-58
2024/01/19 09:31:12;;;;;;;6.82;3.50;;;;;;;;;;4934927;29;20119;-59
2024/01/19 09:33:37;;;;;;;6.22;3.53;;;;;;;;;;4937402;29;20039;-60
2024/01/19 09:36:03;;;;;;;4.68;4.28;;;;;;;;;;4939219;29;20512;-60
2024/01/19 09:38:29;;;;;;;4.97;2.88;;;;;;;;;;4927731;29;20032;-59
2024/01/19 09:41:19;;;;;;;4.00;3.50;;;;;;;;;;4934513;29;20099;-61
2024/01/19 09:43:47;;;;;;;5.63;3.72;;;;;;;;;;4929543;29;20044;-60
2024/01/19 09:46:30;;;;;;;5.35;3.17;;;;;;;;;;4936252;29;20034;-58
2024/01/19 09:49:10;;;;;;;8.70;5.00;;;;;;;;;;4934389;29;20094;-59
2024/01/19 09:51:56;;;;;;;5.03;3.88;;;;;;;;;;4939643;29;20028;-61
2024/01/19 09:54:36;;;;;;;5.82;3.83;;;;;;;;;;4940402;29;20028;-59
2024/01/19 09:57:02;;;;;;;6.40;4.43;;;;;;;;;;4932053;29;20036;-59
2024/01/19 09:59:32;;;;;;;4.50;3.45;;;;;;;;;;4938959;29;20063;-57
2024/01/19 10:01:58;;;;;;;3.92;3.53;;;;;;;;;;4933690;29;20095;-61
2024/01/19 10:04:25;;;;;;;4.70;3.67;;;;;;;;;;4936626;29;20118;-61
2024/01/19 10:06:54;;;;;;;6.15;3.20;;;;;;;;;;4934715;29;20450;-61
2024/01/19 10:09:21;;;;;;;5.20;4.00;;;;;;;;;;4939834;29;20051;-57
2024/01/19 10:11:51;;;;;;;7.18;2.85;;;;;;;;;;4935365;29;20043;-61
2024/01/19 10:14:18;;;;;;;5.68;4.13;;;;;;;;;;4937884;29;20051;-59
2024/01/19 10:16:43;;;;;;;6.68;3.25;;;;;;;;;;4939173;29;20039;-60
2024/01/19 10:19:14;;;;;;;6.90;3.40;;;;;;;;;;4939997;29;20023;-58
2024/01/19 10:21:40;;;;;;;6.32;4.13;;;;;;;;;;4931206;29;20079;-61
2024/01/19 10:24:09;;;;;;;4.35;3.67;;;;;;;;;;4934796;29;20138;-60
2024/01/19 10:26:38;;;;;;;3.70;3.17;;;;;;;;;;4933760;29;20215;-62
2024/01/19 10:29:14;;;;;;;4.43;4.05;;;;;;;;;;4934360;29;20158;-60
2024/01/19 10:31:42;;;;;;;6.10;3.92;;;;;;;;;;4933875;29;20067;-60
2024/01/19 10:34:22;;;;;;;5.63;4.22;;;;;;;;;;4939805;29;20028;-62
2024/01/19 10:36:48;;;;;;;6.63;3.15;;;;;;;;;;4937852;29;20054;-61
2024/01/19 10:39:25;;;;;;;4.90;4.20;;;;;;;;;;4932708;29;20059;-61
2024/01/19 10:42:02;;;;;;;5.88;5.30;;;;;;;;;;4939423;29;20043;-61
2024/01/19 10:44:28;;;;;;;6.90;6.22;;;;;;;;;;4935488;29;20020;-60
2024/01/19 10:46:56;;;;;;;5.63;4.07;;;;;;;;;;4934918;29;20398;-62
2024/01/19 10:49:21;;;;;;;7.25;4.20;;;;;;;;;;4937800;29;20024;-61
2024/01/19 10:51:48;;;;;;;7.00;4.28;;;;;;;;;;4936271;29;20075;-62
2024/01/19 10:54:24;;;;;;;6.78;4.47;;;;;;;;;;4937436;29;20019;-61
2024/01/19 10:57:03;;;;;;;6.97;4.50;;;;;;;;;;4932934;29;20044;-60
2024/01/19 10:59:28;;;;;;;8.50;5.20;;;;;;;;;;4933816;29;20040;-61
2024/01/19 11:02:01;;;;;;;5.60;3.85;;;;;;;;;;4936223;29;20042;-61
2024/01/19 11:04:27;;;;;;;6.50;3.88;;;;;;;;;;4934510;29;20027;-59
2024/01/19 11:06:52;;;;;;;7.35;4.63;;;;;;;;;;4934427;29;20372;-59
2024/01/19 11:09:18;;;;;;;5.93;4.70;;;;;;;;;;4933538;29;20102;-59
2024/01/19 11:12:00;;;;;;;5.85;4.78;;;;;;;;;;4935856;29;20053;-59
2024/01/19 11:14:27;;;;;;;4.70;3.47;;;;;;;;;;4937445;29;20041;-59
2024/01/19 11:16:55;;;;;;;5.60;4.75;;;;;;;;;;4933528;29;20050;-59
2024/01/19 11:19:22;;;;;;;5.45;4.80;;;;;;;;;;4938291;29;20019;-60
2024/01/19 11:21:47;;;;;;;5.35;4.85;;;;;;;;;;4931467;29;20048;-55
2024/01/19 11:24:15;;;;;;;6.15;4.32;;;;;;;;;;4937273;29;20042;-58
2024/01/19 11:26:54;;;;;;;5.35;3.83;;;;;;;;;;4935435;29;20494;-59
2024/01/19 11:29:30;;;;;;;6.05;4.63;;;;;;;;;;4929303;29;20095;-59
2024/01/19 11:31:57;;;;;;;5.40;4.47;;;;;;;;;;4929385;29;20032;-60
2024/01/19 11:34:39;;;;;;;4.38;3.83;;;;;;;;;;4931290;29;20039;-56
2024/01/19 11:37:04;;;;;;;6.97;4.93;;;;;;;;;;4932294;29;20047;-57
2024/01/19 11:39:40;;;;;;;6.60;4.40;;;;;;;;;;4933386;29;20578;-57
2024/01/19 11:42:07;;;;;;;6.35;4.53;;;;;;;;;;4934585;29;20829;-58
2024/01/19 11:44:45;;;;;;;6.05;3.85;;;;;;;;;;4934142;29;20378;-57
2024/01/19 11:47:35;;;;;;;6.25;4.55;;;;;;;;;;4934034;29;20535;-59
2024/01/19 11:50:39;;;;;;;6.28;4.63;;;;;;;;;;4933383;29;20028;-58
2024/01/19 11:53:04;;;;;;;7.28;5.45;;;;;;;;;;4927006;29;20077;-59
2024/01/19 11:55:30;;;;;;;6.22;5.05;;;;;;;;;;4934225;29;20398;-56
2024/01/19 11:57:55;;;;;;;5.90;5.30;;;;;;;;;;4937022;29;20463;-58
2024/01/19 12:00:22;;;;;;;6.47;5.88;;;;;;;;;;4932251;29;20102;-58
2024/01/19 12:02:47;;;;;;;7.20;4.82;;;;;;;;;;4929088;29;20070;-58
2024/01/19 12:05:18;;;;;;;4.90;4.30;;;;;;;;;;4934571;29;20068;-59
2024/01/19 12:07:44;;;;;;;7.85;5.22;;;;;;;;;;4932930;29;20068;-58
2024/01/19 12:10:20;;;;;;;4.65;4.07;;;;;;;;;;4932623;29;20024;-58
2024/01/19 12:12:47;;;;;;;6.78;5.25;;;;;;;;;;4927292;29;20490;-59
2024/01/19 12:15:14;;;;;;;8.13;5.93;;;;;;;;;;4936202;29;20138;-58
2024/01/19 12:17:40;;;;;;;6.30;5.00;;;;;;;;;;4932644;29;20266;-58
2024/01/19 12:20:10;;;;;;;8.70;6.95;;;;;;;;;;4933821;29;20107;-58
2024/01/19 12:22:36;;;;;;;8.02;5.45;;;;;;;;;;4928063;29;20045;-58
2024/01/19 12:25:17;;;;;;;7.40;6.70;;;;;;;;;;4934346;29;20031;-58
2024/01/19 12:27:44;;;;;;;6.82;5.10;;;;;;;;;;4935185;29;20040;-57
2024/01/19 12:30:17;;;;;;;5.78;4.07;;;;;;;;;;4931226;29;20028;-58
2024/01/19 12:32:44;;;;;;;5.60;4.60;;;;;;;;;;4932300;29;20035;-58
2024/01/19 12:35:11;;;;;;;6.70;6.10;;;;;;;;;;4935438;29;20030;-57
2024/01/19 12:37:37;;;;;;;5.50;4.03;;;;;;;;;;4929334;29;20715;-56
2024/01/19 12:40:21;;;;;;;5.47;3.25;;;;;;;;;;4934285;29;20034;-58
2024/01/19 12:42:47;;;;;;;5.00;3.78;;;;;;;;;;4933534;29;20028;-58
2024/01/19 12:45:14;;;;;;;5.78;4.50;;;;;;;;;;4937570;29;20488;-58
2024/01/19 12:47:43;;;;;;;4.95;4.15;;;;;;;;;;4930509;29;20042;-59
2024/01/19 12:50:09;;;;;;;5.75;4.68;;;;;;;;;;4937344;29;20051;-57
2024/01/19 12:52:34;;;;;;;4.90;3.45;;;;;;;;;;4932569;29;20058;-55
2024/01/19 12:55:00;;;;;;;6.60;4.78;;;;;;;;;;4928811;29;20024;-58
2024/01/19 12:57:25;;;;;;;6.18;5.35;;;;;;;;;;4930883;29;20564;-58
2024/01/19 13:00:11;;;;;;;5.57;4.40;;;;;;;;;;4937237;29;20031;-58
2024/01/19 13:02:43;;;;;;;6.60;4.32;;;;;;;;;;4934606;29;20167;-58
2024/01/19 13:05:22;;;;;;;5.85;3.92;;;;;;;;;;4928947;29;20024;-57
2024/01/19 13:07:48;;;;;;;5.38;4.82;;;;;;;;;;4932727;29;20050;-57
2024/01/19 13:10:20;;;;;;;5.93;4.65;;;;;;;;;;4936691;29;20032;-58
2024/01/19 13:12:47;;;;;;;8.63;5.93;;;;;;;;;;4935941;29;20082;-58
2024/01/19 13:15:15;;;;;;;4.25;3.88;;;;;;;;;;4935730;29;20040;-58
2024/01/19 13:17:44;;;;;;;4.88;3.25;;;;;;;;;;4935360;29;20035;-57
2024/01/19 13:20:24;;;;;;;6.38;5.18;;;;;;;;;;4934780;29;20154;-58
2024/01/19 13:22:49;;;;;;;8.32;5.50;;;;;;;;;;4931494;29;20402;-58
2024/01/19 13:25:15;;;;;;;9.40;6.50;;;;;;;;;;4938212;29;20036;-58
2024/01/19 13:27:40;;;;;;;7.00;5.63;;;;;;;;;;4934603;29;20035;-58
2024/01/19 13:30:06;;;;;;;6.78;4.88;;;;;;;;;;4931093;29;20498;-57
2024/01/19 13:32:34;;;;;;;6.97;5.78;;;;;;;;;;4927874;29;20047;-58
2024/01/19 13:34:59;;;;;;;7.07;6.22;;;;;;;;;;4925316;29;20051;-58
2024/01/19 13:37:25;;;;;;;6.57;5.50;;;;;;;;;;4927654;29;20044;-58
2024/01/19 13:39:52;;;;;;;7.10;6.28;;;;;;;;;;4935157;29;20032;-58
2024/01/19 13:42:19;;;;;;;5.75;4.50;;;;;;;;;;4931514;29;20047;-57
2024/01/19 13:44:45;;;;;;;7.70;5.68;;;;;;;;;;4934669;29;20024;-56
2024/01/19 13:47:10;;;;;;;5.38;4.72;;;;;;;;;;4932266;29;20046;-57
2024/01/19 13:49:35;;;;;;;7.97;5.25;;;;;;;;;;4935750;29;20035;-58
2024/01/19 13:52:01;;;;;;;7.63;5.22;;;;;;;;;;4935964;29;20103;-57
2024/01/19 13:54:26;;;;;;;8.52;5.55;;;;;;;;;;4933201;29;20028;-56
2024/01/19 13:56:52;;;;;;;5.25;3.60;;;;;;;;;;4933219;29;20040;-58
2024/01/19 13:59:17;;;;;;;7.93;6.28;;;;;;;;;;4932702;29;20028;-58
2024/01/19 14:01:44;;;;;;;7.93;5.93;;;;;;;;;;4936679;29;20043;-58
2024/01/19 14:04:10;;;;;;;6.13;5.03;;;;;;;;;;4930909;29;20061;-59
2024/01/19 14:06:35;;;;;;;7.45;5.70;;;;;;;;;;4938538;29;20118;-58
2024/01/19 14:09:02;;;;;;;7.00;4.88;;;;;;;;;;4936619;29;20027;-58
2024/01/19 14:11:27;;;;;;;6.65;5.80;;;;;;;;;;4936736;29;20187;-56
2024/01/19 14:13:54;;;;;;;6.45;5.28;;;;;;;;;;4938916;29;20071;-59
2024/01/19 14:16:19;;;;;;;5.72;3.92;;;;;;;;;;4936737;29;20087;-58
2024/01/19 14:18:44;;;;;;;9.55;5.28;;;;;;;;;;4938481;29;20102;-56
2024/01/19 14:21:10;;;;;;;7.20;5.15;;;;;;;;;;4936825;29;20028;-58
2024/01/19 14:23:35;;;;;;;5.85;4.68;;;;;;;;;;4938488;29;20815;-55
2024/01/19 14:26:01;;;;;;;5.93;4.63;;;;;;;;;;4938741;29;20031;-56
2024/01/19 14:28:27;;;;;;;8.48;7.65;;;;;;;;;;4934017;29;20043;-58
2024/01/19 14:30:52;;;;;;;7.05;4.88;;;;;;;;;;4937450;29;20053;-58
2024/01/19 14:33:19;;;;;;;6.00;4.07;;;;;;;;;;4937184;29;20043;-59
2024/01/19 14:35:45;;;;;;;8.18;4.75;;;;;;;;;;4940480;29;20086;-56
2024/01/19 14:38:10;;;;;;;7.05;4.57;;;;;;;;;;4934910;29;20114;-59
2024/01/19 14:40:36;;;;;;;11.27;6.68;;;;;;;;;;4938669;29;20118;-59
2024/01/19 14:43:01;;;;;;;6.72;5.50;;;;;;;;;;4930985;29;20050;-58